Time;durP1;ratioP1;P1;durP2;ratioP2;P2;SDS_P1;SDS_P2;PMS_P1;PMS_P2;Temp;Humidity;BMP_temperature;BMP_pressure;BME280_temperature;BME280_humidity;BME280_pressure;Samples;Min_cycle;Max_cycle;Signal;HPM_P1;HPM_P2
2023/09/11 00:04:57;;;;;;;12.32;5.13;;;;;;;24.16;100.00;100327.19;20887223;28;20045;-71
2023/09/11 00:15:20;;;;;;;15.65;4.82;;;;;;;24.16;100.00;100324.50;20887135;28;20428;-72
2023/09/11 00:25:45;;;;;;;14.23;4.57;;;;;;;24.14;100.00;100315.63;20907875;28;20051;-71
2023/09/11 00:36:07;;;;;;;13.52;4.38;;;;;;;24.13;100.00;100308.47;20968365;28;20467;-72
2023/09/11 00:46:32;;;;;;;15.48;5.03;;;;;;;24.13;100.00;100298.56;20939096;28;20084;-72
2023/09/11 00:56:55;;;;;;;20.50;5.88;;;;;;;24.12;100.00;100320.22;20884558;28;20053;-72
2023/09/11 01:07:20;;;;;;;15.02;5.30;;;;;;;24.05;100.00;100325.03;20897919;28;20060;-72
2023/09/11 01:17:52;;;;;;;18.05;4.38;;;;;;;24.03;100.00;100305.31;20896935;28;20049;-71
2023/09/11 01:28:41;;;;;;;19.17;4.90;;;;;;;24.07;100.00;100306.06;20911095;28;20064;-72
2023/09/11 01:39:09;;;;;;;18.60;4.63;;;;;;;24.02;100.00;100305.44;20992436;28;20052;-71
2023/09/11 01:49:34;;;;;;;18.60;4.72;;;;;;;23.94;100.00;100303.09;20910796;28;20057;-72
2023/09/11 01:59:59;;;;;;;17.73;4.90;;;;;;;23.97;100.00;100305.63;20881593;28;20053;-71
2023/09/11 02:10:22;;;;;;;14.63;4.82;;;;;;;23.96;100.00;100308.41;20881297;28;20095;-72
2023/09/11 02:20:47;;;;;;;17.55;4.93;;;;;;;24.01;100.00;100301.84;20923469;28;20059;-72
2023/09/11 02:31:11;;;;;;;23.13;4.60;;;;;;;23.99;100.00;100301.03;20983222;28;20063;-73
2023/09/11 02:41:36;;;;;;;20.63;4.45;;;;;;;24.06;100.00;100301.63;21003266;28;20554;-72
2023/09/11 02:51:58;;;;;;;17.42;4.35;;;;;;;24.12;100.00;100321.09;20894479;28;20079;-71
2023/09/11 03:02:23;;;;;;;16.42;4.68;;;;;;;24.17;100.00;100324.44;20907259;28;20685;-72
2023/09/11 03:12:46;;;;;;;19.98;5.05;;;;;;;24.20;100.00;100334.25;20906040;28;20115;-71
2023/09/11 03:23:11;;;;;;;19.27;5.50;;;;;;;24.29;100.00;100332.91;20891754;28;20049;-71
2023/09/11 03:33:34;;;;;;;21.35;4.45;;;;;;;24.37;100.00;100338.84;20964397;28;20672;-72
2023/09/11 03:43:59;;;;;;;16.85;4.50;;;;;;;24.31;100.00;100329.22;20936662;28;20041;-71
2023/09/11 03:54:22;;;;;;;17.00;4.22;;;;;;;24.28;100.00;100342.00;20889536;28;20052;-71
2023/09/11 04:04:49;;;;;;;16.92;4.25;;;;;;;24.42;100.00;100363.78;20902972;28;20096;-71
2023/09/11 04:15:12;;;;;;;16.40;4.32;;;;;;;24.49;100.00;100365.22;20901568;28;20056;-71
2023/09/11 04:25:37;;;;;;;12.55;4.45;;;;;;;24.53;100.00;100375.81;20878290;28;20151;-71
2023/09/11 04:36:01;;;;;;;16.75;3.92;;;;;;;24.57;100.00;100385.50;20997507;28;20049;-70
2023/09/11 04:46:25;;;;;;;17.65;4.78;;;;;;;24.73;100.00;100385.66;20954741;28;20048;-71
2023/09/11 04:56:49;;;;;;;18.33;4.07;;;;;;;24.82;100.00;100404.09;20884659;28;20088;-71
2023/09/11 05:07:13;;;;;;;14.98;4.07;;;;;;;25.19;100.00;100410.44;20898138;28;20084;-71
2023/09/11 05:17:36;;;;;;;18.50;3.95;;;;;;;25.49;100.00;100405.28;20897797;28;20076;-71
2023/09/11 05:28:00;;;;;;;17.35;4.70;;;;;;;25.80;100.00;100417.16;20909208;28;20470;-71
2023/09/11 05:38:23;;;;;;;16.05;4.63;;;;;;;26.08;100.00;100418.38;21007509;28;20455;-71
2023/09/11 05:48:48;;;;;;;14.88;3.75;;;;;;;26.20;100.00;100413.19;20930606;28;20064;-72
2023/09/11 05:59:11;;;;;;;18.38;4.03;;;;;;;26.34;100.00;100411.56;20895494;28;20094;-72
2023/09/11 06:09:36;;;;;;;16.67;4.10;;;;;;;26.60;100.00;100421.84;20897143;28;20558;-72
2023/09/11 06:20:00;;;;;;;20.95;3.70;;;;;;;26.82;100.00;100438.63;20910539;28;20045;-71
2023/09/11 06:30:25;;;;;;;13.07;3.35;;;;;;;27.13;100.00;100437.78;20941522;28;20052;-71
2023/09/11 06:40:48;;;;;;;10.75;3.50;;;;;;;27.26;100.00;100451.50;21010345;28;20144;-72
2023/09/11 06:51:12;;;;;;;16.90;4.10;;;;;;;27.26;100.00;100432.50;20907903;28;20052;-72
2023/09/11 07:01:38;;;;;;;19.80;3.97;;;;;;;27.31;100.00;100449.38;20907423;28;20036;-72
2023/09/11 07:12:03;;;;;;;17.65;3.88;;;;;;;27.34;100.00;100463.66;20892465;28;20053;-71
2023/09/11 07:22:25;;;;;;;15.70;3.78;;;;;;;27.49;100.00;100474.56;20905129;28;20052;-71
2023/09/11 07:32:52;;;;;;;16.80;3.65;;;;;;;27.61;100.00;100482.00;20956668;28;20048;-71
2023/09/11 07:43:15;;;;;;;14.07;4.00;;;;;;;27.59;100.00;100483.91;20957793;28;20061;-71
2023/09/11 07:53:39;;;;;;;18.30;3.63;;;;;;;27.73;100.00;100493.00;20887827;28;20049;-72
2023/09/11 08:04:03;;;;;;;15.77;3.97;;;;;;;27.90;100.00;100496.53;20888589;28;20052;-71
2023/09/11 08:14:28;;;;;;;16.52;3.33;;;;;;;28.18;100.00;100493.91;20902473;28;20144;-71
2023/09/11 08:24:51;;;;;;;17.90;3.88;;;;;;;28.46;100.00;100502.09;20885086;28;20060;-72
2023/09/11 08:35:16;;;;;;;13.18;3.53;;;;;;;28.43;100.00;100509.56;21009762;28;20075;-71
2023/09/11 08:45:39;;;;;;;14.32;4.10;;;;;;;28.50;100.00;100500.06;20960899;28;20144;-72
2023/09/11 08:56:05;;;;;;;13.82;3.80;;;;;;;28.62;100.00;100503.88;20885161;28;20059;-71
2023/09/11 09:06:29;;;;;;;16.27;3.50;;;;;;;28.67;100.00;100502.59;20884291;28;20045;-71
2023/09/11 09:16:53;;;;;;;16.75;3.95;;;;;;;28.77;100.00;100483.88;20897446;28;20509;-71
2023/09/11 09:27:16;;;;;;;17.17;3.78;;;;;;;28.72;100.00;100484.16;20916674;28;20067;-72
2023/09/11 09:37:41;;;;;;;13.90;3.83;;;;;;;28.96;100.00;100469.97;21007833;28;20049;-72
2023/09/11 09:48:09;;;;;;;12.30;3.15;;;;;;;29.58;100.00;100474.00;20937250;28;20060;-71
2023/09/11 09:58:36;;;;;;;21.10;3.72;;;;;;;29.77;100.00;100465.44;20923535;28;20049;-72
2023/09/11 10:09:07;;;;;;;14.98;3.97;;;;;;;29.47;100.00;100471.13;20923171;28;20056;-71
2023/09/11 10:19:32;;;;;;;14.45;3.92;;;;;;;29.26;100.00;100476.13;20922750;28;20049;-71
2023/09/11 10:30:04;;;;;;;15.77;3.72;;;;;;;29.42;99.28;100468.69;20962452;28;20148;-72
2023/09/11 10:40:32;;;;;;;15.75;3.60;;;;;;;29.62;100.00;100451.91;20996570;28;20412;-72
2023/09/11 10:50:56;;;;;;;15.88;3.22;;;;;;;29.96;99.00;100441.44;20890377;28;20059;-73
2023/09/11 11:01:21;;;;;;;10.32;3.17;;;;;;;29.83;94.47;100446.81;20906911;28;20471;-72
2023/09/11 11:11:44;;;;;;;14.45;4.05;;;;;;;29.55;92.84;100441.53;20891742;28;20111;-72
2023/09/11 11:22:09;;;;;;;16.65;3.30;;;;;;;29.83;90.37;100438.66;20892108;28;20150;-71
2023/09/11 11:32:35;;;;;;;12.90;3.08;;;;;;;29.53;90.35;100435.34;20883754;28;20068;-71
2023/09/11 11:43:00;;;;;;;18.55;3.58;;;;;;;29.49;90.17;100431.94;20954543;28;20085;-71
2023/09/11 11:53:24;;;;;;;15.30;3.70;;;;;;;29.51;91.31;100419.09;20911735;28;20059;-71
2023/09/11 12:03:50;;;;;;;14.93;3.38;;;;;;;29.45;94.87;100440.44;20887985;28;20060;-71
2023/09/11 12:14:14;;;;;;;16.80;3.72;;;;;;;29.63;95.21;100433.72;20887404;28;20057;-72
2023/09/11 12:24:38;;;;;;;16.00;3.47;;;;;;;29.49;96.73;100450.09;20913888;28;20172;-72
2023/09/11 12:35:03;;;;;;;20.25;4.68;;;;;;;29.21;97.97;100448.38;20908363;28;20056;-71
2023/09/11 12:45:28;;;;;;;16.20;3.95;;;;;;;29.07;97.64;100441.13;20952013;28;20063;-72
2023/09/11 12:55:52;;;;;;;13.23;3.85;;;;;;;29.01;98.72;100438.81;20875896;28;20080;-71
2023/09/11 13:06:17;;;;;;;19.35;3.75;;;;;;;29.17;98.80;100452.25;20891403;28;20056;-72
2023/09/11 13:16:40;;;;;;;18.83;4.20;;;;;;;28.92;98.99;100437.56;20892070;28;20135;-71
2023/09/11 13:27:04;;;;;;;17.00;4.32;;;;;;;28.72;100.00;100456.09;20899744;28;20107;-72
2023/09/11 13:37:27;;;;;;;15.85;3.70;;;;;;;28.81;100.00;100455.53;20915998;28;20526;-72
2023/09/11 13:47:52;;;;;;;13.88;3.58;;;;;;;28.74;100.00;100448.72;20894585;28;20063;-73
2023/09/11 13:58:31;;;;;;;22.90;4.20;;;;;;;28.50;100.00;100462.91;20894606;28;20466;-72
2023/09/11 14:09:55;;;;;;;15.27;3.63;;;;;;;28.57;100.00;100452.50;20888682;28;20549;-73
2023/09/11 14:31:41;;;;;;;15.55;3.78;;;;;;;28.16;100.00;100465.97;20966393;28;20081;-74
2023/09/11 14:42:06;;;;;;;16.60;3.42;;;;;;;27.91;100.00;100471.13;20959545;28;20548;-73
2023/09/11 14:52:28;;;;;;;15.82;3.70;;;;;;;27.69;100.00;100468.88;20907969;28;20497;-72
2023/09/11 15:02:52;;;;;;;13.45;3.60;;;;;;;27.44;100.00;100476.69;20894017;28;20056;-73
2023/09/11 15:13:15;;;;;;;16.70;4.05;;;;;;;27.17;100.00;100479.16;20884603;28;20539;-73
2023/09/11 15:23:39;;;;;;;13.18;3.45;;;;;;;27.09;100.00;100479.59;20904872;28;20075;-74
2023/09/11 15:34:02;;;;;;;12.13;3.08;;;;;;;26.96;100.00;100474.00;20979871;28;20048;-73
2023/09/11 15:44:26;;;;;;;15.45;3.70;;;;;;;26.80;100.00;100481.19;20976098;28;20132;-73
2023/09/11 15:54:48;;;;;;;18.77;3.67;;;;;;;26.68;100.00;100483.72;20902167;28;20056;-74
2023/09/11 16:05:12;;;;;;;14.98;3.72;;;;;;;26.56;100.00;100475.31;20889436;28;20100;-74
2023/09/11 16:15:36;;;;;;;20.50;3.80;;;;;;;26.39;100.00;100474.47;20901208;28;20045;-73
2023/09/11 16:26:00;;;;;;;17.63;3.80;;;;;;;26.19;100.00;100479.09;20897761;28;20044;-73
2023/09/11 16:36:23;;;;;;;20.67;4.90;;;;;;;26.02;100.00;100487.22;20976776;28;20051;-73
2023/09/11 16:46:47;;;;;;;15.18;3.97;;;;;;;25.91;100.00;100488.75;20885847;28;20041;-73
2023/09/11 16:57:09;;;;;;;13.38;4.03;;;;;;;25.79;100.00;100493.88;20913214;28;20048;-73
2023/09/11 17:07:33;;;;;;;16.05;3.83;;;;;;;25.74;100.00;100503.13;20926660;28;20392;-72
2023/09/11 17:17:55;;;;;;;16.30;4.50;;;;;;;25.65;100.00;100509.03;20925736;28;20091;-73
2023/09/11 17:28:20;;;;;;;17.35;4.53;;;;;;;25.63;100.00;100529.84;20918308;28;20130;-73
2023/09/11 17:38:43;;;;;;;16.77;4.32;;;;;;;25.51;100.00;100535.84;20878997;28;20049;-74
2023/09/11 17:49:07;;;;;;;15.98;5.18;;;;;;;25.47;100.00;100555.88;20888405;28;20126;-73
2023/09/11 17:59:30;;;;;;;22.52;4.95;;;;;;;25.40;100.00;100564.28;20889077;28;20056;-75
2023/09/11 18:09:54;;;;;;;18.13;3.95;;;;;;;25.30;100.00;100575.63;20914766;28;20049;-72
2023/09/11 18:20:17;;;;;;;21.02;4.43;;;;;;;25.20;100.00;100590.53;20912767;28;20037;-74
2023/09/11 18:30:41;;;;;;;22.95;4.60;;;;;;;25.11;100.00;100596.34;20946449;28;20062;-73
2023/09/11 18:41:04;;;;;;;22.08;6.03;;;;;;;25.12;100.00;100596.28;20954959;28;20072;-72
2023/09/11 18:51:28;;;;;;;22.50;5.47;;;;;;;25.06;100.00;100602.00;20926689;28;20064;-73
2023/09/11 19:01:51;;;;;;;21.70;5.38;;;;;;;25.03;100.00;100610.22;20942842;28;20084;-72
2023/09/11 19:12:15;;;;;;;22.65;5.05;;;;;;;25.00;100.00;100610.38;20858290;28;20060;-72
2023/09/11 19:22:38;;;;;;;19.95;5.03;;;;;;;24.92;100.00;100601.75;20850120;28;20057;-72
2023/09/11 19:33:02;;;;;;;21.73;4.65;;;;;;;24.86;100.00;100610.09;20969065;28;20044;-72
2023/09/11 19:43:25;;;;;;;24.58;5.25;;;;;;;24.82;100.00;100611.16;20937365;28;20052;-72
2023/09/11 19:53:49;;;;;;;23.17;5.97;;;;;;;24.78;100.00;100625.75;20901414;28;20049;-71
2023/09/11 20:04:11;;;;;;;25.02;4.65;;;;;;;24.71;100.00;100641.38;20894722;28;20099;-72
2023/09/11 20:14:36;;;;;;;20.27;4.70;;;;;;;24.65;100.00;100638.94;20886972;28;20045;-73
2023/09/11 20:24:58;;;;;;;27.33;5.47;;;;;;;24.61;100.00;100653.53;20891943;28;20045;-72
2023/09/11 20:35:22;;;;;;;19.25;5.00;;;;;;;24.53;100.00;100650.28;20925031;28;20386;-73
2023/09/11 20:45:45;;;;;;;21.42;5.43;;;;;;;24.48;100.00;100655.00;20885327;28;20382;-73
2023/09/11 20:56:09;;;;;;;22.52;5.30;;;;;;;24.43;100.00;100648.91;20897746;28;20126;-72
2023/09/11 21:06:34;;;;;;;20.77;4.85;;;;;;;24.40;100.00;100663.44;20845762;28;20686;-72
2023/09/11 21:16:58;;;;;;;15.50;4.25;;;;;;;24.37;100.00;100668.94;20896032;28;20052;-72
2023/09/11 21:27:21;;;;;;;19.20;5.35;;;;;;;24.37;100.00;100657.28;20882119;28;20057;-73
2023/09/11 21:37:45;;;;;;;18.92;4.28;;;;;;;24.35;100.00;100662.72;20882134;28;20053;-72
2023/09/11 21:48:08;;;;;;;21.67;5.30;;;;;;;24.34;100.00;100679.00;20896443;28;20090;-72
2023/09/11 21:58:32;;;;;;;17.77;5.03;;;;;;;24.33;100.00;100670.03;20881806;28;20110;-72
2023/09/11 22:08:54;;;;;;;20.70;4.47;;;;;;;24.31;100.00;100693.50;20881652;28;20119;-74
2023/09/11 22:19:18;;;;;;;20.63;4.25;;;;;;;24.30;100.00;100678.25;20894661;28;20520;-72
2023/09/11 22:29:41;;;;;;;15.65;4.10;;;;;;;24.32;100.00;100684.47;20906516;28;20064;-72
2023/09/11 22:40:07;;;;;;;20.42;5.10;;;;;;;24.33;100.00;100688.03;20906867;28;20048;-72
2023/09/11 22:50:30;;;;;;;18.27;4.55;;;;;;;24.26;100.00;100692.81;20891901;28;20052;-72
2023/09/11 23:00:54;;;;;;;18.98;4.75;;;;;;;24.20;100.00;100677.78;20894545;28;20448;-72
2023/09/11 23:11:16;;;;;;;16.80;3.83;;;;;;;24.14;100.00;100663.63;20906693;28;20053;-72
2023/09/11 23:21:41;;;;;;;17.70;4.18;;;;;;;24.13;100.00;100672.66;20934296;28;20048;-72
2023/09/11 23:32:04;;;;;;;20.58;3.65;;;;;;;24.06;100.00;100653.16;20918932;28;20049;-73
2023/09/11 23:42:28;;;;;;;15.68;3.70;;;;;;;24.05;100.00;100651.41;20933422;28;20048;-73
2023/09/11 23:52:50;;;;;;;14.40;3.63;;;;;;;24.05;100.00;100661.31;20903964;28;20048;-72
